sensor_id;sensor_type;location;lat;lon;timestamp;P1;durP1;ratioP1;P2;durP2;ratioP2
12042;SDS011;6082;49.306;12.862;2022-11-02T00:00:17;15.00;;;8.97;;
12042;SDS011;6082;49.306;12.862;2022-11-02T00:02:43;15.80;;;8.37;;
12042;SDS011;6082;49.306;12.862;2022-11-02T00:05:10;13.33;;;9.17;;
12042;SDS011;6082;49.306;12.862;2022-11-02T00:07:37;12.20;;;7.53;;
12042;SDS011;6082;49.306;12.862;2022-11-02T00:10:04;14.20;;;8.80;;
12042;SDS011;6082;49.306;12.862;2022-11-02T00:12:30;16.50;;;9.03;;
12042;SDS011;6082;49.306;12.862;2022-11-02T00:14:56;19.13;;;9.63;;
12042;SDS011;6082;49.306;12.862;2022-11-02T00:17:22;20.37;;;9.47;;
12042;SDS011;6082;49.306;12.862;2022-11-02T00:19:48;16.03;;;9.37;;
12042;SDS011;6082;49.306;12.862;2022-11-02T00:22:14;16.43;;;9.13;;
12042;SDS011;6082;49.306;12.862;2022-11-02T00:24:40;17.03;;;9.73;;
12042;SDS011;6082;49.306;12.862;2022-11-02T00:27:07;16.00;;;9.63;;
12042;SDS011;6082;49.306;12.862;2022-11-02T00:29:33;13.50;;;8.60;;
12042;SDS011;6082;49.306;12.862;2022-11-02T00:31:59;16.40;;;10.10;;
12042;SDS011;6082;49.306;12.862;2022-11-02T00:34:25;17.47;;;10.03;;
12042;SDS011;6082;49.306;12.862;2022-11-02T00:36:52;15.47;;;8.33;;
12042;SDS011;6082;49.306;12.862;2022-11-02T00:39:18;18.50;;;10.93;;
12042;SDS011;6082;49.306;12.862;2022-11-02T00:41:44;15.83;;;10.10;;
12042;SDS011;6082;49.306;12.862;2022-11-02T00:44:11;17.00;;;10.23;;
12042;SDS011;6082;49.306;12.862;2022-11-02T00:46:37;15.87;;;9.97;;
12042;SDS011;6082;49.306;12.862;2022-11-02T00:49:03;19.20;;;10.40;;
12042;SDS011;6082;49.306;12.862;2022-11-02T00:51:30;15.47;;;9.60;;
12042;SDS011;6082;49.306;12.862;2022-11-02T00:53:56;17.87;;;10.30;;
12042;SDS011;6082;49.306;12.862;2022-11-02T00:56:22;17.13;;;9.83;;
12042;SDS011;6082;49.306;12.862;2022-11-02T00:58:48;16.80;;;10.00;;
12042;SDS011;6082;49.306;12.862;2022-11-02T01:01:14;19.07;;;10.40;;
12042;SDS011;6082;49.306;12.862;2022-11-02T01:03:40;18.10;;;10.23;;
12042;SDS011;6082;49.306;12.862;2022-11-02T01:06:07;16.50;;;9.77;;
12042;SDS011;6082;49.306;12.862;2022-11-02T01:08:33;18.57;;;11.07;;
12042;SDS011;6082;49.306;12.862;2022-11-02T01:11:13;18.67;;;10.23;;
12042;SDS011;6082;49.306;12.862;2022-11-02T01:13:39;18.73;;;11.10;;
12042;SDS011;6082;49.306;12.862;2022-11-02T01:16:06;17.77;;;9.97;;
12042;SDS011;6082;49.306;12.862;2022-11-02T01:18:32;18.40;;;9.97;;
12042;SDS011;6082;49.306;12.862;2022-11-02T01:20:58;20.77;;;10.60;;
12042;SDS011;6082;49.306;12.862;2022-11-02T01:23:24;17.10;;;10.50;;
12042;SDS011;6082;49.306;12.862;2022-11-02T01:25:51;17.13;;;9.93;;
12042;SDS011;6082;49.306;12.862;2022-11-02T01:28:17;20.90;;;10.30;;
12042;SDS011;6082;49.306;12.862;2022-11-02T01:30:45;17.37;;;10.63;;
12042;SDS011;6082;49.306;12.862;2022-11-02T01:33:12;17.00;;;9.80;;
12042;SDS011;6082;49.306;12.862;2022-11-02T01:35:38;21.83;;;10.43;;
12042;SDS011;6082;49.306;12.862;2022-11-02T01:38:04;16.87;;;10.73;;
12042;SDS011;6082;49.306;12.862;2022-11-02T01:40:34;15.47;;;9.77;;
12042;SDS011;6082;49.306;12.862;2022-11-02T01:43:17;16.93;;;9.53;;
12042;SDS011;6082;49.306;12.862;2022-11-02T01:45:43;17.17;;;9.33;;
12042;SDS011;6082;49.306;12.862;2022-11-02T01:48:09;19.97;;;9.83;;
12042;SDS011;6082;49.306;12.862;2022-11-02T01:50:35;17.40;;;10.07;;
12042;SDS011;6082;49.306;12.862;2022-11-02T01:53:00;20.83;;;11.03;;
12042;SDS011;6082;49.306;12.862;2022-11-02T01:55:27;15.43;;;9.30;;
12042;SDS011;6082;49.306;12.862;2022-11-02T01:57:57;17.67;;;9.63;;
12042;SDS011;6082;49.306;12.862;2022-11-02T02:00:25;14.47;;;9.93;;
12042;SDS011;6082;49.306;12.862;2022-11-02T02:05:25;20.10;;;10.37;;
12042;SDS011;6082;49.306;12.862;2022-11-02T02:07:51;18.43;;;9.20;;
12042;SDS011;6082;49.306;12.862;2022-11-02T02:10:18;16.67;;;8.93;;
12042;SDS011;6082;49.306;12.862;2022-11-02T02:12:43;15.13;;;9.07;;
12042;SDS011;6082;49.306;12.862;2022-11-02T02:15:10;18.33;;;9.80;;
12042;SDS011;6082;49.306;12.862;2022-11-02T02:29:15;18.00;;;9.37;;
12042;SDS011;6082;49.306;12.862;2022-11-02T02:31:54;13.33;;;8.17;;
12042;SDS011;6082;49.306;12.862;2022-11-02T02:34:42;12.40;;;7.37;;
12042;SDS011;6082;49.306;12.862;2022-11-02T02:37:16;13.97;;;7.90;;
12042;SDS011;6082;49.306;12.862;2022-11-02T02:42:33;14.33;;;8.43;;
12042;SDS011;6082;49.306;12.862;2022-11-02T02:45:37;14.97;;;7.70;;
12042;SDS011;6082;49.306;12.862;2022-11-02T02:48:16;15.13;;;7.77;;
12042;SDS011;6082;49.306;12.862;2022-11-02T02:53:14;15.03;;;8.70;;
12042;SDS011;6082;49.306;12.862;2022-11-02T02:55:46;15.27;;;7.87;;
12042;SDS011;6082;49.306;12.862;2022-11-02T02:58:21;14.27;;;7.50;;
12042;SDS011;6082;49.306;12.862;2022-11-02T03:00:50;13.23;;;7.87;;
12042;SDS011;6082;49.306;12.862;2022-11-02T03:03:19;12.23;;;7.63;;
12042;SDS011;6082;49.306;12.862;2022-11-02T03:06:23;14.83;;;8.63;;
12042;SDS011;6082;49.306;12.862;2022-11-02T03:12:05;14.60;;;8.07;;
12042;SDS011;6082;49.306;12.862;2022-11-02T03:17:15;13.67;;;8.03;;
12042;SDS011;6082;49.306;12.862;2022-11-02T03:19:47;15.50;;;7.83;;
12042;SDS011;6082;49.306;12.862;2022-11-02T03:27:20;14.47;;;8.50;;
12042;SDS011;6082;49.306;12.862;2022-11-02T03:32:40;14.07;;;8.23;;
12042;SDS011;6082;49.306;12.862;2022-11-02T03:35:24;15.87;;;8.70;;
12042;SDS011;6082;49.306;12.862;2022-11-02T03:38:04;13.70;;;7.63;;
12042;SDS011;6082;49.306;12.862;2022-11-02T03:40:32;14.33;;;8.57;;
12042;SDS011;6082;49.306;12.862;2022-11-02T03:43:00;11.93;;;7.63;;
12042;SDS011;6082;49.306;12.862;2022-11-02T03:45:30;13.50;;;7.73;;
12042;SDS011;6082;49.306;12.862;2022-11-02T03:47:59;19.20;;;9.03;;
12042;SDS011;6082;49.306;12.862;2022-11-02T03:50:26;15.47;;;8.27;;
12042;SDS011;6082;49.306;12.862;2022-11-02T03:52:57;14.60;;;7.87;;
12042;SDS011;6082;49.306;12.862;2022-11-02T03:55:34;14.17;;;8.17;;
12042;SDS011;6082;49.306;12.862;2022-11-02T03:58:00;15.57;;;8.17;;
12042;SDS011;6082;49.306;12.862;2022-11-02T04:00:27;14.97;;;8.40;;
12042;SDS011;6082;49.306;12.862;2022-11-02T04:02:57;15.37;;;8.27;;
12042;SDS011;6082;49.306;12.862;2022-11-02T04:05:31;15.77;;;7.93;;
12042;SDS011;6082;49.306;12.862;2022-11-02T04:07:58;16.10;;;8.53;;
12042;SDS011;6082;49.306;12.862;2022-11-02T04:10:42;14.23;;;7.97;;
12042;SDS011;6082;49.306;12.862;2022-11-02T04:13:28;14.90;;;8.70;;
12042;SDS011;6082;49.306;12.862;2022-11-02T04:16:13;15.00;;;8.70;;
12042;SDS011;6082;49.306;12.862;2022-11-02T04:18:39;12.60;;;8.03;;
12042;SDS011;6082;49.306;12.862;2022-11-02T04:21:24;18.50;;;8.93;;
12042;SDS011;6082;49.306;12.862;2022-11-02T04:23:50;14.43;;;8.70;;
12042;SDS011;6082;49.306;12.862;2022-11-02T04:26:35;17.53;;;8.57;;
12042;SDS011;6082;49.306;12.862;2022-11-02T04:29:01;14.17;;;7.53;;
12042;SDS011;6082;49.306;12.862;2022-11-02T04:31:27;15.53;;;8.47;;
12042;SDS011;6082;49.306;12.862;2022-11-02T04:33:53;15.73;;;9.00;;
12042;SDS011;6082;49.306;12.862;2022-11-02T04:36:19;16.90;;;8.67;;
12042;SDS011;6082;49.306;12.862;2022-11-02T04:38:45;15.57;;;8.10;;
12042;SDS011;6082;49.306;12.862;2022-11-02T04:41:21;12.87;;;8.30;;
12042;SDS011;6082;49.306;12.862;2022-11-02T04:44:06;15.40;;;8.60;;
12042;SDS011;6082;49.306;12.862;2022-11-02T04:46:34;14.00;;;8.10;;
12042;SDS011;6082;49.306;12.862;2022-11-02T04:49:00;16.23;;;8.63;;
12042;SDS011;6082;49.306;12.862;2022-11-02T04:51:27;14.10;;;8.27;;
12042;SDS011;6082;49.306;12.862;2022-11-02T04:53:54;12.93;;;7.80;;
12042;SDS011;6082;49.306;12.862;2022-11-02T04:56:21;17.03;;;9.27;;
12042;SDS011;6082;49.306;12.862;2022-11-02T04:58:48;16.10;;;9.23;;
12042;SDS011;6082;49.306;12.862;2022-11-02T05:01:15;18.47;;;9.33;;
12042;SDS011;6082;49.306;12.862;2022-11-02T05:03:41;18.03;;;8.53;;
12042;SDS011;6082;49.306;12.862;2022-11-02T05:06:10;17.77;;;9.40;;
12042;SDS011;6082;49.306;12.862;2022-11-02T05:08:36;15.07;;;8.13;;
12042;SDS011;6082;49.306;12.862;2022-11-02T05:11:02;14.27;;;8.07;;
12042;SDS011;6082;49.306;12.862;2022-11-02T05:13:28;16.20;;;7.40;;
12042;SDS011;6082;49.306;12.862;2022-11-02T05:15:55;13.27;;;7.97;;
12042;SDS011;6082;49.306;12.862;2022-11-02T05:18:21;14.17;;;7.63;;
12042;SDS011;6082;49.306;12.862;2022-11-02T05:20:51;14.73;;;6.77;;
12042;SDS011;6082;49.306;12.862;2022-11-02T05:23:18;13.10;;;6.73;;
12042;SDS011;6082;49.306;12.862;2022-11-02T05:25:53;12.30;;;6.70;;
12042;SDS011;6082;49.306;12.862;2022-11-02T05:28:21;12.47;;;6.47;;
12042;SDS011;6082;49.306;12.862;2022-11-02T05:30:47;12.77;;;6.20;;
12042;SDS011;6082;49.306;12.862;2022-11-02T05:33:13;14.57;;;6.83;;
12042;SDS011;6082;49.306;12.862;2022-11-02T05:35:39;10.97;;;5.63;;
12042;SDS011;6082;49.306;12.862;2022-11-02T05:38:05;11.27;;;6.53;;
12042;SDS011;6082;49.306;12.862;2022-11-02T05:40:31;13.43;;;6.37;;
12042;SDS011;6082;49.306;12.862;2022-11-02T05:43:01;10.87;;;6.40;;
12042;SDS011;6082;49.306;12.862;2022-11-02T05:45:27;12.20;;;6.97;;
12042;SDS011;6082;49.306;12.862;2022-11-02T05:47:53;12.23;;;7.43;;
12042;SDS011;6082;49.306;12.862;2022-11-02T05:50:19;13.50;;;7.17;;
12042;SDS011;6082;49.306;12.862;2022-11-02T05:52:45;13.87;;;7.77;;
12042;SDS011;6082;49.306;12.862;2022-11-02T05:55:11;14.47;;;7.63;;
12042;SDS011;6082;49.306;12.862;2022-11-02T05:57:37;11.47;;;6.67;;
12042;SDS011;6082;49.306;12.862;2022-11-02T06:00:03;13.93;;;8.27;;
12042;SDS011;6082;49.306;12.862;2022-11-02T06:02:32;13.03;;;7.17;;
12042;SDS011;6082;49.306;12.862;2022-11-02T06:04:58;16.87;;;9.20;;
12042;SDS011;6082;49.306;12.862;2022-11-02T06:07:24;18.53;;;9.70;;
12042;SDS011;6082;49.306;12.862;2022-11-02T06:09:49;21.80;;;10.20;;
12042;SDS011;6082;49.306;12.862;2022-11-02T06:12:15;19.67;;;9.57;;
12042;SDS011;6082;49.306;12.862;2022-11-02T06:14:41;20.87;;;9.73;;
12042;SDS011;6082;49.306;12.862;2022-11-02T06:17:07;19.37;;;10.47;;
12042;SDS011;6082;49.306;12.862;2022-11-02T06:19:33;19.43;;;10.17;;
12042;SDS011;6082;49.306;12.862;2022-11-02T06:21:58;22.67;;;10.57;;
12042;SDS011;6082;49.306;12.862;2022-11-02T06:24:24;17.97;;;9.67;;
12042;SDS011;6082;49.306;12.862;2022-11-02T06:26:50;19.07;;;9.60;;
12042;SDS011;6082;49.306;12.862;2022-11-02T06:29:16;21.43;;;9.07;;
12042;SDS011;6082;49.306;12.862;2022-11-02T06:31:42;17.90;;;9.10;;
12042;SDS011;6082;49.306;12.862;2022-11-02T06:34:07;17.50;;;9.97;;
12042;SDS011;6082;49.306;12.862;2022-11-02T06:36:33;17.10;;;9.20;;
12042;SDS011;6082;49.306;12.862;2022-11-02T06:38:59;18.27;;;9.00;;
12042;SDS011;6082;49.306;12.862;2022-11-02T06:41:24;13.17;;;7.80;;
12042;SDS011;6082;49.306;12.862;2022-11-02T06:43:50;13.10;;;7.33;;
12042;SDS011;6082;49.306;12.862;2022-11-02T06:46:16;11.77;;;7.13;;
12042;SDS011;6082;49.306;12.862;2022-11-02T06:48:41;12.30;;;7.07;;
12042;SDS011;6082;49.306;12.862;2022-11-02T06:51:10;14.50;;;7.27;;
12042;SDS011;6082;49.306;12.862;2022-11-02T06:53:35;13.70;;;7.27;;
12042;SDS011;6082;49.306;12.862;2022-11-02T06:56:01;12.30;;;7.57;;
12042;SDS011;6082;49.306;12.862;2022-11-02T06:58:27;16.87;;;8.60;;
12042;SDS011;6082;49.306;12.862;2022-11-02T07:00:57;13.00;;;7.57;;
12042;SDS011;6082;49.306;12.862;2022-11-02T07:03:24;14.57;;;7.00;;
12042;SDS011;6082;49.306;12.862;2022-11-02T07:05:51;13.37;;;7.57;;
12042;SDS011;6082;49.306;12.862;2022-11-02T07:08:17;13.37;;;7.03;;
12042;SDS011;6082;49.306;12.862;2022-11-02T07:10:43;13.30;;;8.30;;
12042;SDS011;6082;49.306;12.862;2022-11-02T07:13:09;13.10;;;8.13;;
12042;SDS011;6082;49.306;12.862;2022-11-02T07:15:35;16.90;;;9.07;;
12042;SDS011;6082;49.306;12.862;2022-11-02T07:18:01;16.70;;;8.93;;
12042;SDS011;6082;49.306;12.862;2022-11-02T07:20:27;14.20;;;8.20;;
12042;SDS011;6082;49.306;12.862;2022-11-02T07:22:55;15.30;;;7.87;;
12042;SDS011;6082;49.306;12.862;2022-11-02T07:25:22;14.20;;;7.30;;
12042;SDS011;6082;49.306;12.862;2022-11-02T07:27:48;11.77;;;7.10;;
12042;SDS011;6082;49.306;12.862;2022-11-02T07:30:14;14.17;;;7.73;;
12042;SDS011;6082;49.306;12.862;2022-11-02T07:32:40;12.77;;;7.33;;
12042;SDS011;6082;49.306;12.862;2022-11-02T07:35:07;9.10;;;6.27;;
12042;SDS011;6082;49.306;12.862;2022-11-02T07:37:35;13.30;;;7.23;;
12042;SDS011;6082;49.306;12.862;2022-11-02T07:40:01;12.77;;;6.93;;
12042;SDS011;6082;49.306;12.862;2022-11-02T07:42:28;8.97;;;6.40;;
12042;SDS011;6082;49.306;12.862;2022-11-02T07:44:53;10.20;;;5.77;;
12042;SDS011;6082;49.306;12.862;2022-11-02T07:47:19;9.43;;;5.63;;
12042;SDS011;6082;49.306;12.862;2022-11-02T07:49:45;13.40;;;6.40;;
12042;SDS011;6082;49.306;12.862;2022-11-02T07:52:11;8.27;;;5.27;;
12042;SDS011;6082;49.306;12.862;2022-11-02T07:54:36;9.20;;;5.37;;
12042;SDS011;6082;49.306;12.862;2022-11-02T07:57:02;5.93;;;4.30;;
12042;SDS011;6082;49.306;12.862;2022-11-02T07:59:28;7.70;;;4.13;;
12042;SDS011;6082;49.306;12.862;2022-11-02T08:01:53;8.43;;;4.97;;
12042;SDS011;6082;49.306;12.862;2022-11-02T08:04:19;8.50;;;5.07;;
12042;SDS011;6082;49.306;12.862;2022-11-02T08:06:45;8.60;;;5.70;;
12042;SDS011;6082;49.306;12.862;2022-11-02T08:09:10;7.80;;;5.07;;
12042;SDS011;6082;49.306;12.862;2022-11-02T08:11:36;8.23;;;4.90;;
12042;SDS011;6082;49.306;12.862;2022-11-02T08:14:02;8.33;;;5.07;;
12042;SDS011;6082;49.306;12.862;2022-11-02T08:16:28;9.03;;;5.73;;
12042;SDS011;6082;49.306;12.862;2022-11-02T08:18:54;9.23;;;5.90;;
12042;SDS011;6082;49.306;12.862;2022-11-02T08:21:22;6.23;;;4.80;;
12042;SDS011;6082;49.306;12.862;2022-11-02T08:23:48;9.20;;;5.07;;
12042;SDS011;6082;49.306;12.862;2022-11-02T08:26:14;11.63;;;4.60;;
12042;SDS011;6082;49.306;12.862;2022-11-02T08:28:40;8.70;;;5.13;;
12042;SDS011;6082;49.306;12.862;2022-11-02T08:31:06;7.50;;;4.60;;
12042;SDS011;6082;49.306;12.862;2022-11-02T08:33:39;9.43;;;5.30;;
12042;SDS011;6082;49.306;12.862;2022-11-02T08:36:06;10.70;;;5.20;;
12042;SDS011;6082;49.306;12.862;2022-11-02T08:38:35;9.63;;;5.63;;
12042;SDS011;6082;49.306;12.862;2022-11-02T08:41:01;8.83;;;4.73;;
12042;SDS011;6082;49.306;12.862;2022-11-02T08:43:27;10.90;;;5.77;;
12042;SDS011;6082;49.306;12.862;2022-11-02T08:45:55;6.10;;;4.70;;
12042;SDS011;6082;49.306;12.862;2022-11-02T08:48:22;6.93;;;4.73;;
12042;SDS011;6082;49.306;12.862;2022-11-02T08:50:48;6.37;;;4.20;;
12042;SDS011;6082;49.306;12.862;2022-11-02T08:53:14;9.73;;;4.67;;
12042;SDS011;6082;49.306;12.862;2022-11-02T08:55:40;11.30;;;8.00;;
12042;SDS011;6082;49.306;12.862;2022-11-02T08:58:06;5.17;;;4.13;;
12042;SDS011;6082;49.306;12.862;2022-11-02T09:00:32;7.00;;;4.10;;
12042;SDS011;6082;49.306;12.862;2022-11-02T09:03:17;6.80;;;4.40;;
12042;SDS011;6082;49.306;12.862;2022-11-02T09:05:44;7.80;;;5.27;;
12042;SDS011;6082;49.306;12.862;2022-11-02T09:08:14;5.20;;;3.50;;
12042;SDS011;6082;49.306;12.862;2022-11-02T09:10:42;5.27;;;3.50;;
12042;SDS011;6082;49.306;12.862;2022-11-02T09:13:09;4.87;;;2.80;;
12042;SDS011;6082;49.306;12.862;2022-11-02T09:15:37;3.03;;;2.57;;
12042;SDS011;6082;49.306;12.862;2022-11-02T09:18:03;4.70;;;3.00;;
12042;SDS011;6082;49.306;12.862;2022-11-02T09:20:30;4.73;;;3.27;;
12042;SDS011;6082;49.306;12.862;2022-11-02T09:22:56;3.57;;;2.57;;
12042;SDS011;6082;49.306;12.862;2022-11-02T09:25:22;3.33;;;2.30;;
12042;SDS011;6082;49.306;12.862;2022-11-02T09:27:51;5.10;;;2.93;;
12042;SDS011;6082;49.306;12.862;2022-11-02T09:30:20;3.80;;;2.57;;
12042;SDS011;6082;49.306;12.862;2022-11-02T09:35:22;5.70;;;2.80;;
12042;SDS011;6082;49.306;12.862;2022-11-02T09:37:49;6.13;;;2.60;;
12042;SDS011;6082;49.306;12.862;2022-11-02T09:40:16;3.70;;;2.63;;
12042;SDS011;6082;49.306;12.862;2022-11-02T09:45:20;5.43;;;2.50;;
12042;SDS011;6082;49.306;12.862;2022-11-02T09:47:48;7.23;;;2.60;;
12042;SDS011;6082;49.306;12.862;2022-11-02T09:50:22;3.23;;;1.97;;
12042;SDS011;6082;49.306;12.862;2022-11-02T09:52:54;3.10;;;2.13;;
12042;SDS011;6082;49.306;12.862;2022-11-02T09:55:33;3.73;;;2.00;;
12042;SDS011;6082;49.306;12.862;2022-11-02T09:58:04;3.67;;;2.33;;
12042;SDS011;6082;49.306;12.862;2022-11-02T10:00:37;4.17;;;1.97;;
12042;SDS011;6082;49.306;12.862;2022-11-02T10:05:41;4.37;;;2.30;;
12042;SDS011;6082;49.306;12.862;2022-11-02T10:18:47;3.83;;;1.90;;
12042;SDS011;6082;49.306;12.862;2022-11-02T10:21:51;3.20;;;2.20;;
12042;SDS011;6082;49.306;12.862;2022-11-02T10:26:55;4.87;;;2.20;;
12042;SDS011;6082;49.306;12.862;2022-11-02T10:32:18;3.63;;;1.60;;
12042;SDS011;6082;49.306;12.862;2022-11-02T10:34:44;4.27;;;2.27;;
12042;SDS011;6082;49.306;12.862;2022-11-02T10:37:17;3.60;;;2.10;;
12042;SDS011;6082;49.306;12.862;2022-11-02T10:48:12;3.97;;;2.10;;
12042;SDS011;6082;49.306;12.862;2022-11-02T10:53:42;3.47;;;2.00;;
12042;SDS011;6082;49.306;12.862;2022-11-02T10:59:28;2.37;;;1.87;;
12042;SDS011;6082;49.306;12.862;2022-11-02T11:04:27;3.63;;;1.80;;
12042;SDS011;6082;49.306;12.862;2022-11-02T11:06:55;6.07;;;2.13;;
12042;SDS011;6082;49.306;12.862;2022-11-02T11:09:23;4.90;;;1.80;;
12042;SDS011;6082;49.306;12.862;2022-11-02T11:14:29;3.03;;;1.83;;
12042;SDS011;6082;49.306;12.862;2022-11-02T11:17:17;5.97;;;1.87;;
12042;SDS011;6082;49.306;12.862;2022-11-02T11:19:51;3.10;;;1.50;;
12042;SDS011;6082;49.306;12.862;2022-11-02T11:22:36;1.83;;;1.47;;
12042;SDS011;6082;49.306;12.862;2022-11-02T11:25:23;6.00;;;1.53;;
12042;SDS011;6082;49.306;12.862;2022-11-02T11:27:54;3.27;;;1.60;;
12042;SDS011;6082;49.306;12.862;2022-11-02T11:33:02;6.30;;;1.57;;
12042;SDS011;6082;49.306;12.862;2022-11-02T11:35:30;6.70;;;2.17;;
12042;SDS011;6082;49.306;12.862;2022-11-02T11:38:02;2.60;;;1.30;;
12042;SDS011;6082;49.306;12.862;2022-11-02T11:40:34;5.30;;;1.77;;
12042;SDS011;6082;49.306;12.862;2022-11-02T11:43:02;4.77;;;1.47;;
12042;SDS011;6082;49.306;12.862;2022-11-02T11:45:34;6.07;;;1.80;;
12042;SDS011;6082;49.306;12.862;2022-11-02T11:51:01;2.37;;;0.93;;
12042;SDS011;6082;49.306;12.862;2022-11-02T11:53:28;1.83;;;1.23;;
12042;SDS011;6082;49.306;12.862;2022-11-02T11:55:54;2.77;;;1.60;;
12042;SDS011;6082;49.306;12.862;2022-11-02T12:12:15;3.33;;;1.20;;
12042;SDS011;6082;49.306;12.862;2022-11-02T12:28:21;1.10;;;0.93;;
12042;SDS011;6082;49.306;12.862;2022-11-02T12:42:22;1.07;;;0.60;;
12042;SDS011;6082;49.306;12.862;2022-11-02T12:55:17;2.20;;;0.87;;
12042;SDS011;6082;49.306;12.862;2022-11-02T12:57:48;6.60;;;1.17;;
12042;SDS011;6082;49.306;12.862;2022-11-02T13:00:19;2.20;;;0.80;;
12042;SDS011;6082;49.306;12.862;2022-11-02T13:05:25;1.80;;;0.63;;
12042;SDS011;6082;49.306;12.862;2022-11-02T13:08:15;5.00;;;1.10;;
12042;SDS011;6082;49.306;12.862;2022-11-02T13:10:48;3.27;;;1.27;;
12042;SDS011;6082;49.306;12.862;2022-11-02T13:13:18;1.90;;;0.97;;
12042;SDS011;6082;49.306;12.862;2022-11-02T13:15:51;2.33;;;1.03;;
12042;SDS011;6082;49.306;12.862;2022-11-02T13:18:23;1.30;;;0.90;;
12042;SDS011;6082;49.306;12.862;2022-11-02T13:20:54;1.60;;;0.77;;
12042;SDS011;6082;49.306;12.862;2022-11-02T13:26:00;2.10;;;1.03;;
12042;SDS011;6082;49.306;12.862;2022-11-02T13:28:47;4.67;;;0.90;;
12042;SDS011;6082;49.306;12.862;2022-11-02T13:33:53;2.63;;;1.00;;
12042;SDS011;6082;49.306;12.862;2022-11-02T13:36:24;1.90;;;1.00;;
12042;SDS011;6082;49.306;12.862;2022-11-02T13:39:05;1.07;;;0.80;;
12042;SDS011;6082;49.306;12.862;2022-11-02T13:50:12;1.27;;;0.87;;
12042;SDS011;6082;49.306;12.862;2022-11-02T13:52:47;1.47;;;0.87;;
12042;SDS011;6082;49.306;12.862;2022-11-02T13:58:12;2.70;;;1.10;;
12042;SDS011;6082;49.306;12.862;2022-11-02T14:01:05;2.37;;;0.90;;
12042;SDS011;6082;49.306;12.862;2022-11-02T14:06:14;2.20;;;1.43;;
12042;SDS011;6082;49.306;12.862;2022-11-02T14:08:46;4.37;;;2.20;;
12042;SDS011;6082;49.306;12.862;2022-11-02T14:22:02;2.80;;;1.40;;
12042;SDS011;6082;49.306;12.862;2022-11-02T14:34:53;3.40;;;1.73;;
12042;SDS011;6082;49.306;12.862;2022-11-02T14:45:27;3.50;;;1.23;;
12042;SDS011;6082;49.306;12.862;2022-11-02T14:48:13;4.97;;;1.70;;
12042;SDS011;6082;49.306;12.862;2022-11-02T14:50:40;5.00;;;2.83;;
12042;SDS011;6082;49.306;12.862;2022-11-02T14:53:22;6.20;;;2.73;;
12042;SDS011;6082;49.306;12.862;2022-11-02T14:55:52;4.83;;;2.30;;
12042;SDS011;6082;49.306;12.862;2022-11-02T14:58:20;5.80;;;2.00;;
12042;SDS011;6082;49.306;12.862;2022-11-02T15:05:48;3.37;;;1.83;;
12042;SDS011;6082;49.306;12.862;2022-11-02T15:08:30;9.13;;;2.47;;
12042;SDS011;6082;49.306;12.862;2022-11-02T15:27:33;5.57;;;3.10;;
12042;SDS011;6082;49.306;12.862;2022-11-02T15:30:01;4.30;;;2.70;;
12042;SDS011;6082;49.306;12.862;2022-11-02T15:32:29;6.33;;;2.83;;
12042;SDS011;6082;49.306;12.862;2022-11-02T15:35:03;7.10;;;3.20;;
12042;SDS011;6082;49.306;12.862;2022-11-02T15:37:30;5.90;;;3.63;;
12042;SDS011;6082;49.306;12.862;2022-11-02T15:40:00;9.67;;;4.27;;
12042;SDS011;6082;49.306;12.862;2022-11-02T15:42:35;6.30;;;3.27;;
12042;SDS011;6082;49.306;12.862;2022-11-02T15:45:25;4.80;;;3.00;;
12042;SDS011;6082;49.306;12.862;2022-11-02T15:48:48;4.27;;;2.20;;
12042;SDS011;6082;49.306;12.862;2022-11-02T15:51:49;4.93;;;2.47;;
12042;SDS011;6082;49.306;12.862;2022-11-02T15:54:32;4.47;;;2.60;;
12042;SDS011;6082;49.306;12.862;2022-11-02T15:57:21;5.23;;;3.07;;
12042;SDS011;6082;49.306;12.862;2022-11-02T16:00:02;8.50;;;4.73;;
12042;SDS011;6082;49.306;12.862;2022-11-02T16:02:46;7.87;;;4.20;;
12042;SDS011;6082;49.306;12.862;2022-11-02T16:05:23;6.30;;;4.17;;
12042;SDS011;6082;49.306;12.862;2022-11-02T16:07:51;6.50;;;4.13;;
12042;SDS011;6082;49.306;12.862;2022-11-02T16:12:59;6.83;;;4.40;;
12042;SDS011;6082;49.306;12.862;2022-11-02T16:15:34;9.77;;;5.93;;
12042;SDS011;6082;49.306;12.862;2022-11-02T16:17:59;6.30;;;4.57;;
12042;SDS011;6082;49.306;12.862;2022-11-02T16:20:26;7.63;;;4.07;;
12042;SDS011;6082;49.306;12.862;2022-11-02T16:22:54;8.10;;;4.03;;
12042;SDS011;6082;49.306;12.862;2022-11-02T16:25:36;5.37;;;3.47;;
12042;SDS011;6082;49.306;12.862;2022-11-02T16:30:37;7.23;;;3.93;;
12042;SDS011;6082;49.306;12.862;2022-11-02T16:33:03;7.83;;;4.63;;
12042;SDS011;6082;49.306;12.862;2022-11-02T16:35:30;17.63;;;8.83;;
12042;SDS011;6082;49.306;12.862;2022-11-02T16:37:57;13.97;;;7.47;;
12042;SDS011;6082;49.306;12.862;2022-11-02T16:40:22;18.10;;;8.67;;
12042;SDS011;6082;49.306;12.862;2022-11-02T16:42:50;19.73;;;8.33;;
12042;SDS011;6082;49.306;12.862;2022-11-02T16:48:14;17.27;;;7.60;;
12042;SDS011;6082;49.306;12.862;2022-11-02T16:51:04;10.37;;;5.30;;
12042;SDS011;6082;49.306;12.862;2022-11-02T16:53:38;7.43;;;2.97;;
12042;SDS011;6082;49.306;12.862;2022-11-02T16:56:15;3.73;;;2.83;;
12042;SDS011;6082;49.306;12.862;2022-11-02T16:58:58;5.20;;;2.70;;
12042;SDS011;6082;49.306;12.862;2022-11-02T17:01:27;4.90;;;2.70;;
12042;SDS011;6082;49.306;12.862;2022-11-02T17:04:13;2.70;;;2.33;;
12042;SDS011;6082;49.306;12.862;2022-11-02T17:06:47;3.77;;;2.33;;
12042;SDS011;6082;49.306;12.862;2022-11-02T17:09:24;7.47;;;2.03;;
12042;SDS011;6082;49.306;12.862;2022-11-02T17:11:56;3.60;;;2.00;;
12042;SDS011;6082;49.306;12.862;2022-11-02T17:14:30;6.30;;;2.40;;
12042;SDS011;6082;49.306;12.862;2022-11-02T17:17:01;4.60;;;2.77;;
12042;SDS011;6082;49.306;12.862;2022-11-02T17:22:10;28.03;;;13.13;;
12042;SDS011;6082;49.306;12.862;2022-11-02T17:24:46;29.23;;;12.20;;
12042;SDS011;6082;49.306;12.862;2022-11-02T17:29:51;19.13;;;9.23;;
12042;SDS011;6082;49.306;12.862;2022-11-02T17:32:20;14.23;;;8.93;;
12042;SDS011;6082;49.306;12.862;2022-11-02T17:34:47;13.57;;;7.33;;
12042;SDS011;6082;49.306;12.862;2022-11-02T17:37:35;7.20;;;4.47;;
12042;SDS011;6082;49.306;12.862;2022-11-02T17:40:01;6.83;;;3.63;;
12042;SDS011;6082;49.306;12.862;2022-11-02T17:42:27;4.13;;;2.60;;
12042;SDS011;6082;49.306;12.862;2022-11-02T17:45:31;2.83;;;2.07;;
12042;SDS011;6082;49.306;12.862;2022-11-02T17:48:04;5.60;;;2.40;;
12042;SDS011;6082;49.306;12.862;2022-11-02T17:50:32;4.63;;;3.20;;
12042;SDS011;6082;49.306;12.862;2022-11-02T17:52:59;3.93;;;2.30;;
12042;SDS011;6082;49.306;12.862;2022-11-02T17:55:27;4.40;;;2.60;;
12042;SDS011;6082;49.306;12.862;2022-11-02T17:57:55;3.07;;;2.13;;
12042;SDS011;6082;49.306;12.862;2022-11-02T18:00:25;2.57;;;1.90;;
12042;SDS011;6082;49.306;12.862;2022-11-02T18:02:53;4.50;;;2.20;;
12042;SDS011;6082;49.306;12.862;2022-11-02T18:07:49;3.87;;;2.20;;
12042;SDS011;6082;49.306;12.862;2022-11-02T18:10:15;3.33;;;1.70;;
12042;SDS011;6082;49.306;12.862;2022-11-02T18:12:41;3.50;;;2.00;;
12042;SDS011;6082;49.306;12.862;2022-11-02T18:15:10;4.07;;;1.70;;
12042;SDS011;6082;49.306;12.862;2022-11-02T18:17:44;2.57;;;1.73;;
12042;SDS011;6082;49.306;12.862;2022-11-02T18:20:11;2.67;;;1.83;;
12042;SDS011;6082;49.306;12.862;2022-11-02T18:22:37;3.57;;;1.70;;
12042;SDS011;6082;49.306;12.862;2022-11-02T18:25:07;2.63;;;1.83;;
12042;SDS011;6082;49.306;12.862;2022-11-02T18:27:35;3.73;;;1.80;;
12042;SDS011;6082;49.306;12.862;2022-11-02T18:30:02;3.30;;;2.07;;
12042;SDS011;6082;49.306;12.862;2022-11-02T18:32:29;4.70;;;2.67;;
12042;SDS011;6082;49.306;12.862;2022-11-02T18:34:55;3.43;;;2.70;;
12042;SDS011;6082;49.306;12.862;2022-11-02T18:37:21;5.23;;;3.20;;